sensor_id;sensor_type;location;lat;lon;timestamp;P1;durP1;ratioP1;P2;durP2;ratioP2
19057;SDS011;9662;53.612;9.914;2022-09-09T00:01:47;27.63;;;15.17;;
19057;SDS011;9662;53.612;9.914;2022-09-09T00:04:24;20.57;;;13.57;;
19057;SDS011;9662;53.612;9.914;2022-09-09T00:06:55;21.35;;;14.20;;
19057;SDS011;9662;53.612;9.914;2022-09-09T00:09:29;26.95;;;14.25;;
19057;SDS011;9662;53.612;9.914;2022-09-09T00:12:04;23.15;;;14.20;;
19057;SDS011;9662;53.612;9.914;2022-09-09T00:14:37;23.80;;;14.45;;
19057;SDS011;9662;53.612;9.914;2022-09-09T00:17:12;24.70;;;14.73;;
19057;SDS011;9662;53.612;9.914;2022-09-09T00:19:46;23.02;;;14.75;;
19057;SDS011;9662;53.612;9.914;2022-09-09T00:22:19;27.25;;;14.48;;
19057;SDS011;9662;53.612;9.914;2022-09-09T00:24:49;26.85;;;15.20;;
19057;SDS011;9662;53.612;9.914;2022-09-09T00:27:25;27.00;;;15.40;;
19057;SDS011;9662;53.612;9.914;2022-09-09T00:29:57;24.98;;;14.63;;
19057;SDS011;9662;53.612;9.914;2022-09-09T00:32:29;27.83;;;15.60;;
19057;SDS011;9662;53.612;9.914;2022-09-09T00:34:57;23.00;;;14.48;;
19057;SDS011;9662;53.612;9.914;2022-09-09T00:37:28;26.42;;;14.88;;
19057;SDS011;9662;53.612;9.914;2022-09-09T00:39:57;22.67;;;14.40;;
19057;SDS011;9662;53.612;9.914;2022-09-09T00:42:31;35.22;;;16.73;;
19057;SDS011;9662;53.612;9.914;2022-09-09T00:45:08;31.80;;;16.63;;
19057;SDS011;9662;53.612;9.914;2022-09-09T00:47:46;35.50;;;18.17;;
19057;SDS011;9662;53.612;9.914;2022-09-09T00:50:17;36.88;;;17.40;;
19057;SDS011;9662;53.612;9.914;2022-09-09T00:53:02;37.17;;;18.00;;
19057;SDS011;9662;53.612;9.914;2022-09-09T00:55:41;38.03;;;18.58;;
19057;SDS011;9662;53.612;9.914;2022-09-09T00:58:14;40.10;;;18.45;;
19057;SDS011;9662;53.612;9.914;2022-09-09T01:00:42;35.03;;;18.77;;
19057;SDS011;9662;53.612;9.914;2022-09-09T01:03:18;36.55;;;18.02;;
19057;SDS011;9662;53.612;9.914;2022-09-09T01:05:51;38.67;;;18.40;;
19057;SDS011;9662;53.612;9.914;2022-09-09T01:08:41;30.48;;;17.00;;
19057;SDS011;9662;53.612;9.914;2022-09-09T01:11:21;33.92;;;17.65;;
19057;SDS011;9662;53.612;9.914;2022-09-09T01:13:52;29.83;;;16.77;;
19057;SDS011;9662;53.612;9.914;2022-09-09T01:16:24;28.40;;;16.30;;
19057;SDS011;9662;53.612;9.914;2022-09-09T01:18:54;33.50;;;16.75;;
19057;SDS011;9662;53.612;9.914;2022-09-09T01:21:26;32.05;;;17.23;;
19057;SDS011;9662;53.612;9.914;2022-09-09T01:24:11;32.63;;;16.47;;
19057;SDS011;9662;53.612;9.914;2022-09-09T01:26:46;26.58;;;16.45;;
19057;SDS011;9662;53.612;9.914;2022-09-09T01:29:16;31.55;;;17.08;;
19057;SDS011;9662;53.612;9.914;2022-09-09T01:31:52;37.65;;;17.60;;
19057;SDS011;9662;53.612;9.914;2022-09-09T01:34:20;33.05;;;17.27;;
19057;SDS011;9662;53.612;9.914;2022-09-09T01:36:49;31.42;;;17.13;;
19057;SDS011;9662;53.612;9.914;2022-09-09T01:39:22;33.50;;;16.83;;
19057;SDS011;9662;53.612;9.914;2022-09-09T01:41:50;33.10;;;16.40;;
19057;SDS011;9662;53.612;9.914;2022-09-09T01:44:17;30.17;;;16.77;;
19057;SDS011;9662;53.612;9.914;2022-09-09T01:46:45;35.00;;;17.67;;
19057;SDS011;9662;53.612;9.914;2022-09-09T01:49:12;32.45;;;17.42;;
19057;SDS011;9662;53.612;9.914;2022-09-09T01:51:39;32.95;;;16.80;;
19057;SDS011;9662;53.612;9.914;2022-09-09T01:54:08;29.80;;;16.10;;
19057;SDS011;9662;53.612;9.914;2022-09-09T01:56:36;28.10;;;15.93;;
19057;SDS011;9662;53.612;9.914;2022-09-09T01:59:14;32.03;;;16.13;;
19057;SDS011;9662;53.612;9.914;2022-09-09T02:02:07;28.50;;;16.08;;
19057;SDS011;9662;53.612;9.914;2022-09-09T02:04:38;29.00;;;15.93;;
19057;SDS011;9662;53.612;9.914;2022-09-09T02:07:12;28.45;;;15.68;;
19057;SDS011;9662;53.612;9.914;2022-09-09T02:09:54;28.98;;;15.93;;
19057;SDS011;9662;53.612;9.914;2022-09-09T02:12:27;31.65;;;14.98;;
19057;SDS011;9662;53.612;9.914;2022-09-09T02:14:58;29.53;;;15.50;;
19057;SDS011;9662;53.612;9.914;2022-09-09T02:17:30;31.42;;;15.75;;
19057;SDS011;9662;53.612;9.914;2022-09-09T02:20:03;28.70;;;15.63;;
19057;SDS011;9662;53.612;9.914;2022-09-09T02:22:33;32.72;;;15.50;;
19057;SDS011;9662;53.612;9.914;2022-09-09T02:25:05;27.30;;;14.55;;
19057;SDS011;9662;53.612;9.914;2022-09-09T02:27:34;24.07;;;13.50;;
19057;SDS011;9662;53.612;9.914;2022-09-09T02:30:03;26.05;;;15.02;;
19057;SDS011;9662;53.612;9.914;2022-09-09T02:32:31;29.67;;;14.80;;
19057;SDS011;9662;53.612;9.914;2022-09-09T02:35:02;27.55;;;14.15;;
19057;SDS011;9662;53.612;9.914;2022-09-09T02:37:33;24.63;;;13.98;;
19057;SDS011;9662;53.612;9.914;2022-09-09T02:40:03;24.50;;;14.00;;
19057;SDS011;9662;53.612;9.914;2022-09-09T02:42:30;29.30;;;14.50;;
19057;SDS011;9662;53.612;9.914;2022-09-09T02:44:57;24.13;;;13.43;;
19057;SDS011;9662;53.612;9.914;2022-09-09T02:47:27;26.02;;;14.38;;
19057;SDS011;9662;53.612;9.914;2022-09-09T02:50:02;25.63;;;14.23;;
19057;SDS011;9662;53.612;9.914;2022-09-09T02:52:38;32.20;;;14.07;;
19057;SDS011;9662;53.612;9.914;2022-09-09T02:55:16;27.60;;;14.30;;
19057;SDS011;9662;53.612;9.914;2022-09-09T02:57:50;27.05;;;14.38;;
19057;SDS011;9662;53.612;9.914;2022-09-09T03:00:22;25.48;;;14.55;;
19057;SDS011;9662;53.612;9.914;2022-09-09T03:02:51;32.58;;;14.73;;
19057;SDS011;9662;53.612;9.914;2022-09-09T03:05:19;24.98;;;13.73;;
19057;SDS011;9662;53.612;9.914;2022-09-09T03:07:46;27.05;;;14.65;;
19057;SDS011;9662;53.612;9.914;2022-09-09T03:10:13;27.48;;;14.20;;
19057;SDS011;9662;53.612;9.914;2022-09-09T03:12:39;26.60;;;13.82;;
19057;SDS011;9662;53.612;9.914;2022-09-09T03:15:07;26.73;;;13.95;;
19057;SDS011;9662;53.612;9.914;2022-09-09T03:17:34;24.60;;;13.82;;
19057;SDS011;9662;53.612;9.914;2022-09-09T03:20:03;25.35;;;14.10;;
19057;SDS011;9662;53.612;9.914;2022-09-09T03:22:30;22.05;;;12.45;;
19057;SDS011;9662;53.612;9.914;2022-09-09T03:24:57;26.48;;;13.85;;
19057;SDS011;9662;53.612;9.914;2022-09-09T03:27:24;21.80;;;12.55;;
19057;SDS011;9662;53.612;9.914;2022-09-09T03:29:50;22.48;;;13.13;;
19057;SDS011;9662;53.612;9.914;2022-09-09T03:32:17;19.98;;;12.18;;
19057;SDS011;9662;53.612;9.914;2022-09-09T03:34:47;18.33;;;12.02;;
19057;SDS011;9662;53.612;9.914;2022-09-09T03:37:16;20.17;;;12.25;;
19057;SDS011;9662;53.612;9.914;2022-09-09T03:39:43;22.58;;;12.57;;
19057;SDS011;9662;53.612;9.914;2022-09-09T03:42:11;21.60;;;12.70;;
19057;SDS011;9662;53.612;9.914;2022-09-09T03:44:39;21.50;;;12.35;;
19057;SDS011;9662;53.612;9.914;2022-09-09T03:47:06;19.35;;;11.73;;
19057;SDS011;9662;53.612;9.914;2022-09-09T03:49:33;16.58;;;11.25;;
19057;SDS011;9662;53.612;9.914;2022-09-09T03:52:00;19.50;;;11.95;;
19057;SDS011;9662;53.612;9.914;2022-09-09T03:54:28;19.25;;;11.55;;
19057;SDS011;9662;53.612;9.914;2022-09-09T03:56:55;14.75;;;10.82;;
19057;SDS011;9662;53.612;9.914;2022-09-09T03:59:22;16.45;;;11.25;;
19057;SDS011;9662;53.612;9.914;2022-09-09T04:01:50;14.00;;;10.53;;
19057;SDS011;9662;53.612;9.914;2022-09-09T04:04:17;14.68;;;10.73;;
19057;SDS011;9662;53.612;9.914;2022-09-09T04:06:44;13.93;;;10.20;;
19057;SDS011;9662;53.612;9.914;2022-09-09T04:09:13;15.73;;;10.18;;
19057;SDS011;9662;53.612;9.914;2022-09-09T04:11:41;15.93;;;10.75;;
19057;SDS011;9662;53.612;9.914;2022-09-09T04:14:08;14.10;;;10.27;;
19057;SDS011;9662;53.612;9.914;2022-09-09T04:16:34;14.17;;;10.30;;
19057;SDS011;9662;53.612;9.914;2022-09-09T04:19:02;16.67;;;10.35;;
19057;SDS011;9662;53.612;9.914;2022-09-09T04:21:29;13.50;;;10.10;;
19057;SDS011;9662;53.612;9.914;2022-09-09T04:23:56;12.50;;;9.40;;
19057;SDS011;9662;53.612;9.914;2022-09-09T04:26:23;16.20;;;10.10;;
19057;SDS011;9662;53.612;9.914;2022-09-09T04:28:51;12.63;;;9.60;;
19057;SDS011;9662;53.612;9.914;2022-09-09T04:31:18;13.20;;;9.45;;
19057;SDS011;9662;53.612;9.914;2022-09-09T04:33:47;13.10;;;9.43;;
19057;SDS011;9662;53.612;9.914;2022-09-09T04:36:14;10.15;;;9.15;;
19057;SDS011;9662;53.612;9.914;2022-09-09T04:38:41;11.98;;;9.27;;
19057;SDS011;9662;53.612;9.914;2022-09-09T04:41:09;10.15;;;9.15;;
19057;SDS011;9662;53.612;9.914;2022-09-09T04:43:36;11.53;;;9.53;;
19057;SDS011;9662;53.612;9.914;2022-09-09T04:46:05;13.13;;;8.73;;
19057;SDS011;9662;53.612;9.914;2022-09-09T04:48:32;11.15;;;9.10;;
19057;SDS011;9662;53.612;9.914;2022-09-09T04:50:59;10.27;;;8.40;;
19057;SDS011;9662;53.612;9.914;2022-09-09T04:53:28;11.05;;;9.35;;
19057;SDS011;9662;53.612;9.914;2022-09-09T04:56:01;10.90;;;9.25;;
19057;SDS011;9662;53.612;9.914;2022-09-09T04:58:29;12.30;;;9.80;;
19057;SDS011;9662;53.612;9.914;2022-09-09T05:01:02;14.90;;;9.75;;
19057;SDS011;9662;53.612;9.914;2022-09-09T05:03:31;10.45;;;9.15;;
19057;SDS011;9662;53.612;9.914;2022-09-09T05:06:02;10.98;;;8.75;;
19057;SDS011;9662;53.612;9.914;2022-09-09T05:08:33;12.15;;;10.07;;
19057;SDS011;9662;53.612;9.914;2022-09-09T05:11:00;10.10;;;8.90;;
19057;SDS011;9662;53.612;9.914;2022-09-09T05:13:27;13.63;;;9.32;;
19057;SDS011;9662;53.612;9.914;2022-09-09T05:15:57;9.50;;;8.55;;
19057;SDS011;9662;53.612;9.914;2022-09-09T05:18:25;14.05;;;8.90;;
19057;SDS011;9662;53.612;9.914;2022-09-09T05:20:52;9.07;;;8.23;;
19057;SDS011;9662;53.612;9.914;2022-09-09T05:23:18;9.05;;;8.15;;
19057;SDS011;9662;53.612;9.914;2022-09-09T05:25:54;8.95;;;8.05;;
19057;SDS011;9662;53.612;9.914;2022-09-09T05:28:22;9.60;;;8.60;;
19057;SDS011;9662;53.612;9.914;2022-09-09T05:30:54;9.87;;;8.53;;
19057;SDS011;9662;53.612;9.914;2022-09-09T05:33:22;9.37;;;8.33;;
19057;SDS011;9662;53.612;9.914;2022-09-09T05:35:55;8.38;;;7.65;;
19057;SDS011;9662;53.612;9.914;2022-09-09T05:38:23;8.90;;;8.10;;
19057;SDS011;9662;53.612;9.914;2022-09-09T05:40:50;11.00;;;8.55;;
19057;SDS011;9662;53.612;9.914;2022-09-09T05:43:17;8.48;;;7.68;;
19057;SDS011;9662;53.612;9.914;2022-09-09T05:45:44;8.85;;;7.95;;
19057;SDS011;9662;53.612;9.914;2022-09-09T05:48:12;8.40;;;7.63;;
19057;SDS011;9662;53.612;9.914;2022-09-09T05:50:40;8.35;;;7.45;;
19057;SDS011;9662;53.612;9.914;2022-09-09T05:53:08;9.27;;;8.37;;
19057;SDS011;9662;53.612;9.914;2022-09-09T05:55:35;9.73;;;8.43;;
19057;SDS011;9662;53.612;9.914;2022-09-09T05:58:02;8.10;;;7.30;;
19057;SDS011;9662;53.612;9.914;2022-09-09T06:00:29;9.23;;;7.82;;
19057;SDS011;9662;53.612;9.914;2022-09-09T06:02:56;8.57;;;7.78;;
19057;SDS011;9662;53.612;9.914;2022-09-09T06:05:23;8.15;;;7.45;;
19057;SDS011;9662;53.612;9.914;2022-09-09T06:07:52;11.17;;;7.87;;
19057;SDS011;9662;53.612;9.914;2022-09-09T06:10:20;8.15;;;7.45;;
19057;SDS011;9662;53.612;9.914;2022-09-09T06:12:47;8.37;;;7.57;;
19057;SDS011;9662;53.612;9.914;2022-09-09T06:15:14;7.72;;;7.13;;
19057;SDS011;9662;53.612;9.914;2022-09-09T06:17:42;8.05;;;7.38;;
19057;SDS011;9662;53.612;9.914;2022-09-09T06:20:10;6.75;;;6.15;;
19057;SDS011;9662;53.612;9.914;2022-09-09T06:22:39;5.55;;;5.22;;
19057;SDS011;9662;53.612;9.914;2022-09-09T06:25:07;6.07;;;5.50;;
19057;SDS011;9662;53.612;9.914;2022-09-09T06:27:35;5.45;;;5.05;;
19057;SDS011;9662;53.612;9.914;2022-09-09T06:30:02;5.13;;;4.20;;
19057;SDS011;9662;53.612;9.914;2022-09-09T06:32:29;3.90;;;3.70;;
19057;SDS011;9662;53.612;9.914;2022-09-09T06:34:58;4.00;;;3.80;;
19057;SDS011;9662;53.612;9.914;2022-09-09T06:37:26;3.30;;;3.20;;
19057;SDS011;9662;53.612;9.914;2022-09-09T06:39:53;4.07;;;3.67;;
19057;SDS011;9662;53.612;9.914;2022-09-09T06:42:20;8.00;;;3.92;;
19057;SDS011;9662;53.612;9.914;2022-09-09T06:44:48;3.78;;;3.58;;
19057;SDS011;9662;53.612;9.914;2022-09-09T06:47:15;4.57;;;3.80;;
19057;SDS011;9662;53.612;9.914;2022-09-09T06:49:41;3.47;;;3.22;;
19057;SDS011;9662;53.612;9.914;2022-09-09T06:52:08;4.07;;;3.88;;
19057;SDS011;9662;53.612;9.914;2022-09-09T06:54:35;4.13;;;3.65;;
19057;SDS011;9662;53.612;9.914;2022-09-09T06:57:02;4.03;;;3.72;;
19057;SDS011;9662;53.612;9.914;2022-09-09T06:59:32;7.40;;;3.60;;
19057;SDS011;9662;53.612;9.914;2022-09-09T07:02:00;4.28;;;3.30;;
19057;SDS011;9662;53.612;9.914;2022-09-09T07:04:26;3.45;;;3.35;;
19057;SDS011;9662;53.612;9.914;2022-09-09T07:06:53;6.83;;;3.73;;
19057;SDS011;9662;53.612;9.914;2022-09-09T07:09:20;5.50;;;3.40;;
19057;SDS011;9662;53.612;9.914;2022-09-09T07:11:47;4.85;;;3.17;;
19057;SDS011;9662;53.612;9.914;2022-09-09T07:14:15;5.47;;;3.60;;
19057;SDS011;9662;53.612;9.914;2022-09-09T07:16:42;8.00;;;3.80;;
19057;SDS011;9662;53.612;9.914;2022-09-09T07:19:13;3.95;;;3.58;;
19057;SDS011;9662;53.612;9.914;2022-09-09T07:21:40;4.25;;;3.28;;
19057;SDS011;9662;53.612;9.914;2022-09-09T07:24:07;4.68;;;3.55;;
19057;SDS011;9662;53.612;9.914;2022-09-09T07:26:35;3.30;;;2.67;;
19057;SDS011;9662;53.612;9.914;2022-09-09T07:29:03;4.68;;;3.72;;
19057;SDS011;9662;53.612;9.914;2022-09-09T07:31:31;5.05;;;3.13;;
19057;SDS011;9662;53.612;9.914;2022-09-09T07:33:59;2.92;;;2.80;;
19057;SDS011;9662;53.612;9.914;2022-09-09T07:36:29;3.28;;;3.08;;
19057;SDS011;9662;53.612;9.914;2022-09-09T07:38:58;3.25;;;3.05;;
19057;SDS011;9662;53.612;9.914;2022-09-09T07:41:27;2.90;;;2.80;;
19057;SDS011;9662;53.612;9.914;2022-09-09T07:43:55;2.80;;;2.60;;
19057;SDS011;9662;53.612;9.914;2022-09-09T07:46:25;3.15;;;2.72;;
19057;SDS011;9662;53.612;9.914;2022-09-09T07:48:52;3.55;;;3.05;;
19057;SDS011;9662;53.612;9.914;2022-09-09T07:51:22;3.30;;;3.15;;
19057;SDS011;9662;53.612;9.914;2022-09-09T07:53:53;2.88;;;2.70;;
19057;SDS011;9662;53.612;9.914;2022-09-09T07:56:22;3.08;;;2.97;;
19057;SDS011;9662;53.612;9.914;2022-09-09T07:58:50;6.25;;;3.75;;
19057;SDS011;9662;53.612;9.914;2022-09-09T08:01:18;3.35;;;3.15;;
19057;SDS011;9662;53.612;9.914;2022-09-09T08:03:52;3.13;;;3.00;;
19057;SDS011;9662;53.612;9.914;2022-09-09T08:06:19;4.25;;;2.60;;
19057;SDS011;9662;53.612;9.914;2022-09-09T08:08:49;2.90;;;2.70;;
19057;SDS011;9662;53.612;9.914;2022-09-09T08:11:18;2.88;;;2.70;;
19057;SDS011;9662;53.612;9.914;2022-09-09T08:13:45;3.17;;;2.88;;
19057;SDS011;9662;53.612;9.914;2022-09-09T08:16:13;3.25;;;3.05;;
19057;SDS011;9662;53.612;9.914;2022-09-09T08:18:41;3.83;;;3.22;;
19057;SDS011;9662;53.612;9.914;2022-09-09T08:21:10;4.53;;;3.05;;
19057;SDS011;9662;53.612;9.914;2022-09-09T08:23:38;6.40;;;2.73;;
19057;SDS011;9662;53.612;9.914;2022-09-09T08:26:06;3.17;;;2.90;;
19057;SDS011;9662;53.612;9.914;2022-09-09T08:28:37;2.95;;;2.67;;
19057;SDS011;9662;53.612;9.914;2022-09-09T08:31:05;3.00;;;2.80;;
19057;SDS011;9662;53.612;9.914;2022-09-09T08:33:33;2.72;;;2.63;;
19057;SDS011;9662;53.612;9.914;2022-09-09T08:36:01;3.10;;;2.70;;
19057;SDS011;9662;53.612;9.914;2022-09-09T08:38:28;2.78;;;2.67;;
19057;SDS011;9662;53.612;9.914;2022-09-09T08:40:56;2.72;;;2.63;;
19057;SDS011;9662;53.612;9.914;2022-09-09T08:43:31;3.30;;;2.88;;
19057;SDS011;9662;53.612;9.914;2022-09-09T08:46:00;2.67;;;2.57;;
19057;SDS011;9662;53.612;9.914;2022-09-09T08:48:40;3.65;;;2.90;;
19057;SDS011;9662;53.612;9.914;2022-09-09T08:51:14;3.40;;;3.10;;
19057;SDS011;9662;53.612;9.914;2022-09-09T08:53:43;4.22;;;2.97;;
19057;SDS011;9662;53.612;9.914;2022-09-09T08:56:12;3.88;;;2.58;;
19057;SDS011;9662;53.612;9.914;2022-09-09T08:58:43;3.20;;;2.40;;
19057;SDS011;9662;53.612;9.914;2022-09-09T09:01:32;2.97;;;2.30;;
19057;SDS011;9662;53.612;9.914;2022-09-09T09:04:12;3.55;;;2.65;;
19057;SDS011;9662;53.612;9.914;2022-09-09T09:06:49;4.40;;;2.37;;
19057;SDS011;9662;53.612;9.914;2022-09-09T09:09:21;2.85;;;2.55;;
19057;SDS011;9662;53.612;9.914;2022-09-09T09:11:55;2.28;;;2.08;;
19057;SDS011;9662;53.612;9.914;2022-09-09T09:14:26;2.67;;;2.47;;
19057;SDS011;9662;53.612;9.914;2022-09-09T09:16:57;2.17;;;2.00;;
19057;SDS011;9662;53.612;9.914;2022-09-09T09:19:26;2.30;;;2.10;;
19057;SDS011;9662;53.612;9.914;2022-09-09T09:21:57;3.38;;;2.30;;
19057;SDS011;9662;53.612;9.914;2022-09-09T09:24:32;2.10;;;2.00;;
19057;SDS011;9662;53.612;9.914;2022-09-09T09:27:08;2.00;;;1.70;;
19057;SDS011;9662;53.612;9.914;2022-09-09T09:29:38;2.70;;;1.90;;
19057;SDS011;9662;53.612;9.914;2022-09-09T09:32:08;2.80;;;1.90;;
19057;SDS011;9662;53.612;9.914;2022-09-09T09:34:39;2.00;;;1.90;;
19057;SDS011;9662;53.612;9.914;2022-09-09T09:37:11;2.05;;;1.85;;
19057;SDS011;9662;53.612;9.914;2022-09-09T09:39:44;1.45;;;1.30;;
19057;SDS011;9662;53.612;9.914;2022-09-09T09:42:12;6.70;;;2.15;;
19057;SDS011;9662;53.612;9.914;2022-09-09T09:44:42;4.47;;;3.55;;
19057;SDS011;9662;53.612;9.914;2022-09-09T09:47:12;2.40;;;1.60;;
19057;SDS011;9662;53.612;9.914;2022-09-09T09:49:50;3.35;;;1.45;;
19057;SDS011;9662;53.612;9.914;2022-09-09T09:52:19;1.10;;;1.10;;
19057;SDS011;9662;53.612;9.914;2022-09-09T09:54:48;2.90;;;1.27;;
19057;SDS011;9662;53.612;9.914;2022-09-09T09:57:16;3.15;;;1.45;;
19057;SDS011;9662;53.612;9.914;2022-09-09T09:59:44;0.90;;;0.90;;
19057;SDS011;9662;53.612;9.914;2022-09-09T10:02:15;1.95;;;1.67;;
19057;SDS011;9662;53.612;9.914;2022-09-09T10:04:44;1.67;;;1.58;;
19057;SDS011;9662;53.612;9.914;2022-09-09T10:07:11;1.10;;;1.10;;
19057;SDS011;9662;53.612;9.914;2022-09-09T10:09:39;2.20;;;1.80;;
19057;SDS011;9662;53.612;9.914;2022-09-09T10:12:09;3.08;;;1.38;;
19057;SDS011;9662;53.612;9.914;2022-09-09T10:14:49;2.15;;;1.10;;
19057;SDS011;9662;53.612;9.914;2022-09-09T10:17:27;1.30;;;1.30;;
19057;SDS011;9662;53.612;9.914;2022-09-09T10:20:07;1.30;;;1.30;;
19057;SDS011;9662;53.612;9.914;2022-09-09T10:22:45;1.58;;;1.50;;
19057;SDS011;9662;53.612;9.914;2022-09-09T10:25:25;3.15;;;1.40;;
19057;SDS011;9662;53.612;9.914;2022-09-09T10:31:01;1.40;;;1.30;;
19057;SDS011;9662;53.612;9.914;2022-09-09T10:33:41;1.60;;;1.50;;
19057;SDS011;9662;53.612;9.914;2022-09-09T10:36:16;1.60;;;1.50;;
19057;SDS011;9662;53.612;9.914;2022-09-09T10:38:46;4.30;;;1.60;;
19057;SDS011;9662;53.612;9.914;2022-09-09T10:41:18;1.90;;;1.70;;
19057;SDS011;9662;53.612;9.914;2022-09-09T10:43:54;1.73;;;1.63;;
19057;SDS011;9662;53.612;9.914;2022-09-09T10:46:41;1.60;;;1.40;;
19057;SDS011;9662;53.612;9.914;2022-09-09T10:49:20;1.60;;;1.50;;
19057;SDS011;9662;53.612;9.914;2022-09-09T10:51:57;1.25;;;1.25;;
19057;SDS011;9662;53.612;9.914;2022-09-09T10:54:35;1.42;;;1.42;;
19057;SDS011;9662;53.612;9.914;2022-09-09T10:57:17;1.40;;;1.30;;
19057;SDS011;9662;53.612;9.914;2022-09-09T10:59:54;2.20;;;1.23;;
19057;SDS011;9662;53.612;9.914;2022-09-09T11:02:25;2.28;;;1.52;;
19057;SDS011;9662;53.612;9.914;2022-09-09T11:04:57;3.22;;;1.58;;
19057;SDS011;9662;53.612;9.914;2022-09-09T11:07:28;2.00;;;1.30;;
19057;SDS011;9662;53.612;9.914;2022-09-09T11:10:02;1.33;;;1.30;;
19057;SDS011;9662;53.612;9.914;2022-09-09T11:12:33;2.10;;;1.40;;
19057;SDS011;9662;53.612;9.914;2022-09-09T11:15:04;1.30;;;1.20;;
19057;SDS011;9662;53.612;9.914;2022-09-09T11:17:36;1.42;;;1.27;;
19057;SDS011;9662;53.612;9.914;2022-09-09T11:20:12;1.47;;;1.37;;
19057;SDS011;9662;53.612;9.914;2022-09-09T11:22:42;1.60;;;1.50;;
19057;SDS011;9662;53.612;9.914;2022-09-09T11:25:15;1.15;;;1.10;;
19057;SDS011;9662;53.612;9.914;2022-09-09T11:27:50;1.43;;;1.20;;
19057;SDS011;9662;53.612;9.914;2022-09-09T11:30:29;1.63;;;1.52;;
19057;SDS011;9662;53.612;9.914;2022-09-09T11:33:12;1.23;;;1.20;;
19057;SDS011;9662;53.612;9.914;2022-09-09T11:36:03;1.60;;;1.10;;
19057;SDS011;9662;53.612;9.914;2022-09-09T11:38:40;4.05;;;1.90;;
19057;SDS011;9662;53.612;9.914;2022-09-09T11:41:11;1.45;;;1.35;;
19057;SDS011;9662;53.612;9.914;2022-09-09T11:43:41;1.05;;;1.05;;
19057;SDS011;9662;53.612;9.914;2022-09-09T11:46:10;1.40;;;1.30;;
19057;SDS011;9662;53.612;9.914;2022-09-09T11:48:39;1.30;;;1.20;;
19057;SDS011;9662;53.612;9.914;2022-09-09T11:51:10;1.50;;;1.20;;
19057;SDS011;9662;53.612;9.914;2022-09-09T11:53:47;1.20;;;1.10;;
19057;SDS011;9662;53.612;9.914;2022-09-09T11:56:24;1.20;;;1.10;;
19057;SDS011;9662;53.612;9.914;2022-09-09T11:58:56;2.60;;;1.17;;
19057;SDS011;9662;53.612;9.914;2022-09-09T12:01:30;2.53;;;1.17;;
19057;SDS011;9662;53.612;9.914;2022-09-09T12:04:11;0.98;;;0.98;;
19057;SDS011;9662;53.612;9.914;2022-09-09T12:06:46;1.10;;;1.10;;
19057;SDS011;9662;53.612;9.914;2022-09-09T12:09:18;1.10;;;1.10;;
19057;SDS011;9662;53.612;9.914;2022-09-09T12:11:49;2.10;;;1.45;;
19057;SDS011;9662;53.612;9.914;2022-09-09T12:14:20;1.17;;;1.17;;
19057;SDS011;9662;53.612;9.914;2022-09-09T12:16:48;1.63;;;1.15;;
19057;SDS011;9662;53.612;9.914;2022-09-09T12:19:18;2.22;;;1.33;;
19057;SDS011;9662;53.612;9.914;2022-09-09T12:21:51;1.10;;;1.10;;
19057;SDS011;9662;53.612;9.914;2022-09-09T12:24:25;2.53;;;1.30;;
19057;SDS011;9662;53.612;9.914;2022-09-09T12:26:58;1.73;;;1.33;;
19057;SDS011;9662;53.612;9.914;2022-09-09T12:29:35;1.63;;;1.43;;
19057;SDS011;9662;53.612;9.914;2022-09-09T12:32:09;2.25;;;1.30;;
19057;SDS011;9662;53.612;9.914;2022-09-09T12:34:38;1.75;;;1.30;;
19057;SDS011;9662;53.612;9.914;2022-09-09T12:39:54;2.40;;;1.52;;
19057;SDS011;9662;53.612;9.914;2022-09-09T12:42:23;1.50;;;1.40;;
19057;SDS011;9662;53.612;9.914;2022-09-09T12:44:50;2.58;;;1.48;;
19057;SDS011;9662;53.612;9.914;2022-09-09T12:47:18;1.35;;;1.27;;
19057;SDS011;9662;53.612;9.914;2022-09-09T12:49:47;2.55;;;1.55;;
19057;SDS011;9662;53.612;9.914;2022-09-09T12:52:17;2.33;;;1.30;;
19057;SDS011;9662;53.612;9.914;2022-09-09T12:54:48;2.45;;;1.42;;
19057;SDS011;9662;53.612;9.914;2022-09-09T12:57:18;1.45;;;1.30;;
19057;SDS011;9662;53.612;9.914;2022-09-09T12:59:46;1.50;;;1.40;;
19057;SDS011;9662;53.612;9.914;2022-09-09T13:02:17;1.63;;;1.50;;
19057;SDS011;9662;53.612;9.914;2022-09-09T13:04:46;1.40;;;1.30;;
19057;SDS011;9662;53.612;9.914;2022-09-09T13:07:15;2.30;;;1.25;;
19057;SDS011;9662;53.612;9.914;2022-09-09T13:09:43;1.10;;;1.10;;
19057;SDS011;9662;53.612;9.914;2022-09-09T13:12:13;3.55;;;1.40;;
19057;SDS011;9662;53.612;9.914;2022-09-09T13:14:42;3.63;;;1.45;;
19057;SDS011;9662;53.612;9.914;2022-09-09T13:17:17;1.60;;;1.50;;
19057;SDS011;9662;53.612;9.914;2022-09-09T13:19:46;3.60;;;1.75;;
19057;SDS011;9662;53.612;9.914;2022-09-09T13:22:19;3.40;;;2.10;;
19057;SDS011;9662;53.612;9.914;2022-09-09T13:24:47;4.10;;;2.60;;
19057;SDS011;9662;53.612;9.914;2022-09-09T13:27:29;1.95;;;1.70;;
19057;SDS011;9662;53.612;9.914;2022-09-09T13:29:59;1.93;;;1.90;;
19057;SDS011;9662;53.612;9.914;2022-09-09T13:32:27;3.10;;;2.22;;
19057;SDS011;9662;53.612;9.914;2022-09-09T13:34:57;1.77;;;1.67;;
19057;SDS011;9662;53.612;9.914;2022-09-09T13:37:26;2.17;;;1.33;;
19057;SDS011;9662;53.612;9.914;2022-09-09T13:39:57;1.52;;;1.42;;
19057;SDS011;9662;53.612;9.914;2022-09-09T13:42:24;3.03;;;1.20;;
19057;SDS011;9662;53.612;9.914;2022-09-09T13:44:54;1.27;;;1.23;;
19057;SDS011;9662;53.612;9.914;2022-09-09T13:47:26;1.40;;;1.30;;
19057;SDS011;9662;53.612;9.914;2022-09-09T13:49:56;1.35;;;1.25;;
19057;SDS011;9662;53.612;9.914;2022-09-09T13:52:22;1.60;;;1.50;;
19057;SDS011;9662;53.612;9.914;2022-09-09T13:54:51;1.77;;;1.30;;
19057;SDS011;9662;53.612;9.914;2022-09-09T13:57:19;5.22;;;1.77;;
19057;SDS011;9662;53.612;9.914;2022-09-09T13:59:48;1.83;;;1.67;;
19057;SDS011;9662;53.612;9.914;2022-09-09T14:02:16;4.00;;;1.80;;
19057;SDS011;9662;53.612;9.914;2022-09-09T14:04:43;1.95;;;1.65;;
19057;SDS011;9662;53.612;9.914;2022-09-09T14:07:11;5.57;;;2.00;;
19057;SDS011;9662;53.612;9.914;2022-09-09T14:09:39;2.10;;;1.90;;
19057;SDS011;9662;53.612;9.914;2022-09-09T14:12:08;2.60;;;2.03;;
19057;SDS011;9662;53.612;9.914;2022-09-09T14:14:35;2.30;;;2.00;;
19057;SDS011;9662;53.612;9.914;2022-09-09T14:17:02;3.20;;;1.83;;
19057;SDS011;9662;53.612;9.914;2022-09-09T14:19:30;2.35;;;2.15;;
19057;SDS011;9662;53.612;9.914;2022-09-09T14:21:57;3.13;;;2.17;;
19057;SDS011;9662;53.612;9.914;2022-09-09T14:24:24;3.53;;;2.03;;
19057;SDS011;9662;53.612;9.914;2022-09-09T14:26:51;3.40;;;1.98;;
19057;SDS011;9662;53.612;9.914;2022-09-09T14:29:18;2.33;;;2.13;;
19057;SDS011;9662;53.612;9.914;2022-09-09T14:31:44;3.30;;;2.20;;
19057;SDS011;9662;53.612;9.914;2022-09-09T14:34:11;4.70;;;2.50;;
19057;SDS011;9662;53.612;9.914;2022-09-09T14:36:40;3.50;;;2.38;;
19057;SDS011;9662;53.612;9.914;2022-09-09T14:39:07;3.58;;;2.80;;
19057;SDS011;9662;53.612;9.914;2022-09-09T14:41:34;5.38;;;2.78;;
19057;SDS011;9662;53.612;9.914;2022-09-09T14:44:00;2.10;;;2.00;;
19057;SDS011;9662;53.612;9.914;2022-09-09T14:46:27;2.65;;;2.10;;
19057;SDS011;9662;53.612;9.914;2022-09-09T14:48:54;3.13;;;2.10;;
19057;SDS011;9662;53.612;9.914;2022-09-09T14:51:22;3.33;;;1.90;;
19057;SDS011;9662;53.612;9.914;2022-09-09T14:53:54;1.90;;;1.80;;
19057;SDS011;9662;53.612;9.914;2022-09-09T14:56:22;2.03;;;1.92;;
19057;SDS011;9662;53.612;9.914;2022-09-09T14:58:52;2.90;;;2.10;;
19057;SDS011;9662;53.612;9.914;2022-09-09T15:01:20;1.90;;;1.80;;
19057;SDS011;9662;53.612;9.914;2022-09-09T15:03:49;5.85;;;2.40;;
19057;SDS011;9662;53.612;9.914;2022-09-09T15:06:17;2.33;;;2.13;;
19057;SDS011;9662;53.612;9.914;2022-09-09T15:08:45;2.03;;;1.92;;
19057;SDS011;9662;53.612;9.914;2022-09-09T15:11:14;1.90;;;1.80;;
19057;SDS011;9662;53.612;9.914;2022-09-09T15:13:42;2.00;;;1.90;;
19057;SDS011;9662;53.612;9.914;2022-09-09T15:16:10;1.85;;;1.73;;
19057;SDS011;9662;53.612;9.914;2022-09-09T15:18:38;2.35;;;2.15;;